Time;durP1;ratioP1;P1;durP2;ratioP2;P2;SDS_P1;SDS_P2;PMS_P1;PMS_P2;Temp;Humidity;BMP_temperature;BMP_pressure;BME280_temperature;BME280_humidity;BME280_pressure;Samples;Min_cycle;Max_cycle;Signal;HPM_P1;HPM_P2
2023/08/05 00:01:23;;;;;;;9.55;5.13;;;;;;;15.51;93.59;101574.19;5016057;28;20417;-80
2023/08/05 00:03:48;;;;;;;7.13;5.18;;;;;;;15.51;93.34;101567.97;5016086;28;20124;-80
2023/08/05 00:06:14;;;;;;;6.55;5.07;;;;;;;15.55;93.79;101559.56;5015229;28;20116;-80
2023/08/05 00:08:39;;;;;;;9.50;5.15;;;;;;;15.60;93.77;101565.47;5033496;28;20017;-80
2023/08/05 00:11:07;;;;;;;9.60;5.43;;;;;;;15.62;93.09;101560.84;5033614;28;20035;-80
2023/08/05 00:13:34;;;;;;;7.43;4.90;;;;;;;15.70;93.25;101557.63;5015902;28;20471;-80
2023/08/05 00:16:01;;;;;;;6.80;5.55;;;;;;;15.49;94.09;101549.28;5033600;28;20018;-79
2023/08/05 00:18:26;;;;;;;9.00;5.45;;;;;;;15.57;93.94;101546.06;5033476;28;20080;-80
2023/08/05 00:20:51;;;;;;;6.63;5.68;;;;;;;15.63;93.96;101548.28;5015727;28;20029;-80
2023/08/05 00:23:17;;;;;;;7.70;5.35;;;;;;;15.56;94.67;101555.06;5015282;28;20032;-80
2023/08/05 00:25:42;;;;;;;9.00;6.18;;;;;;;15.56;94.60;101549.69;5015526;28;20385;-80
2023/08/05 00:28:08;;;;;;;8.18;5.30;;;;;;;15.52;94.55;101541.03;5015656;28;20120;-80
2023/08/05 00:30:33;;;;;;;7.72;5.80;;;;;;;15.61;94.44;101548.41;5015467;28;20018;-80
2023/08/05 00:32:59;;;;;;;8.00;5.70;;;;;;;15.51;94.67;101531.28;5015598;28;20040;-80
2023/08/05 00:35:27;;;;;;;6.38;5.40;;;;;;;15.56;94.50;101539.84;5033008;28;20033;-80
2023/08/05 00:37:52;;;;;;;8.05;5.68;;;;;;;15.49;94.94;101533.22;5015483;28;20036;-80
2023/08/05 00:40:18;;;;;;;9.43;5.78;;;;;;;15.50;95.06;101526.00;5010964;28;20046;-80
2023/08/05 00:42:43;;;;;;;8.73;5.57;;;;;;;15.54;95.36;101541.78;5028720;28;20032;-81
2023/08/05 00:45:11;;;;;;;11.02;5.78;;;;;;;15.45;95.21;101534.41;5028493;28;20034;-80
2023/08/05 00:47:37;;;;;;;8.73;5.88;;;;;;;15.45;95.09;101518.31;5012037;28;20084;-80
2023/08/05 00:50:04;;;;;;;9.45;5.43;;;;;;;15.50;95.24;101523.34;5013135;28;20030;-80
2023/08/05 00:52:30;;;;;;;9.60;6.07;;;;;;;15.58;95.64;101529.00;5013215;28;20034;-80
2023/08/05 00:54:55;;;;;;;8.20;5.70;;;;;;;15.43;95.47;101518.41;5027745;28;20022;-80
2023/08/05 00:57:24;;;;;;;9.75;6.10;;;;;;;15.45;95.69;101524.53;5013150;28;20022;-80
2023/08/05 00:59:52;;;;;;;6.82;5.35;;;;;;;15.50;95.40;101521.53;5028210;28;20072;-80
2023/08/05 01:02:17;;;;;;;7.20;6.50;;;;;;;15.49;94.91;101524.31;5013518;28;20022;-80
2023/08/05 01:04:45;;;;;;;8.90;6.45;;;;;;;15.53;95.10;101528.47;5012946;28;20412;-80
2023/08/05 01:07:11;;;;;;;7.25;6.45;;;;;;;15.40;94.33;101523.16;5013026;28;20100;-80
2023/08/05 01:09:37;;;;;;;8.45;6.90;;;;;;;15.34;94.59;101521.78;5027584;28;20028;-80
2023/08/05 01:12:02;;;;;;;9.07;7.22;;;;;;;15.33;95.12;101521.91;5011778;28;20026;-80
2023/08/05 01:14:31;;;;;;;8.70;6.20;;;;;;;15.31;95.53;101513.09;5011501;28;20481;-80
2023/08/05 01:16:57;;;;;;;16.33;7.63;;;;;;;15.32;95.85;101507.63;5011540;28;20048;-79
2023/08/05 01:19:25;;;;;;;9.23;7.00;;;;;;;15.15;96.47;101490.09;5011885;28;20026;-80
2023/08/05 01:22:19;;;;;;;13.75;6.88;;;;;;;15.34;96.09;101497.66;5027768;28;20037;-80
2023/08/05 01:24:50;;;;;;;7.72;6.93;;;;;;;15.35;96.19;101503.88;5012128;28;20567;-80
2023/08/05 01:27:18;;;;;;;11.20;8.07;;;;;;;15.15;96.55;101491.94;5027722;28;20029;-80
2023/08/05 01:29:43;;;;;;;10.02;6.93;;;;;;;15.25;96.78;101508.19;5012580;28;20026;-80
2023/08/05 01:32:12;;;;;;;8.57;7.70;;;;;;;15.27;96.50;101503.59;5012931;28;20068;-80
2023/08/05 01:34:38;;;;;;;14.20;8.52;;;;;;;15.14;96.62;101496.41;5012768;28;20033;-80
2023/08/05 01:37:04;;;;;;;8.10;7.30;;;;;;;15.15;97.17;101503.50;5027679;28;20099;-80
2023/08/05 01:39:29;;;;;;;12.60;7.72;;;;;;;15.06;97.59;101493.44;5028429;28;20429;-80
2023/08/05 01:41:55;;;;;;;11.15;7.38;;;;;;;15.16;97.24;101505.19;5032272;28;20408;-80
2023/08/05 01:44:23;;;;;;;8.00;7.20;;;;;;;15.17;97.28;101506.91;5014491;28;20022;-80
2023/08/05 01:46:49;;;;;;;10.13;7.45;;;;;;;15.21;96.68;101504.88;5032279;28;20076;-80
2023/08/05 01:49:14;;;;;;;8.75;7.55;;;;;;;15.11;97.59;101503.81;5031880;28;20072;-80
2023/08/05 01:51:40;;;;;;;9.75;7.75;;;;;;;15.07;97.64;101495.16;5014705;28;20055;-80
2023/08/05 01:54:08;;;;;;;11.90;7.82;;;;;;;14.98;97.31;101501.16;5013797;28;20021;-80
2023/08/05 01:56:35;;;;;;;11.32;7.80;;;;;;;15.01;97.15;101495.59;5014306;28;20104;-81
2023/08/05 01:59:01;;;;;;;8.50;7.38;;;;;;;15.06;97.06;101500.59;5031960;28;20029;-80
2023/08/05 02:01:42;;;;;;;9.23;7.60;;;;;;;14.97;98.35;101497.63;5014343;28;20483;-80
2023/08/05 02:04:08;;;;;;;12.07;7.80;;;;;;;14.87;98.33;101491.19;5014453;28;20112;-80
2023/08/05 02:06:35;;;;;;;9.95;7.03;;;;;;;14.92;98.58;101507.81;5014324;28;20112;-80
2023/08/05 02:09:01;;;;;;;11.85;8.30;;;;;;;14.89;98.20;101499.16;5031251;28;20036;-80
2023/08/05 02:11:32;;;;;;;13.90;8.20;;;;;;;14.87;98.56;101491.19;5031976;28;20021;-80
2023/08/05 02:13:58;;;;;;;11.35;8.13;;;;;;;14.82;98.08;101495.16;5014244;28;20118;-80
2023/08/05 02:16:23;;;;;;;9.75;7.85;;;;;;;14.77;98.16;101488.31;5014194;28;20477;-80
2023/08/05 02:18:53;;;;;;;10.70;8.27;;;;;;;14.77;98.59;101504.41;5014135;28;20116;-80
2023/08/05 02:21:24;;;;;;;10.75;8.05;;;;;;;14.82;98.44;101496.03;5014324;28;20032;-80
2023/08/05 02:23:52;;;;;;;10.25;8.30;;;;;;;14.64;99.00;101498.16;5013730;28;20036;-80
2023/08/05 02:26:18;;;;;;;14.40;8.98;;;;;;;14.67;98.87;101495.28;5031911;28;20057;-80
2023/08/05 02:28:45;;;;;;;9.75;8.85;;;;;;;14.60;98.73;101488.66;5013870;28;20076;-79
2023/08/05 02:31:13;;;;;;;11.38;8.82;;;;;;;14.72;98.71;101493.16;5035604;28;20484;-79
2023/08/05 02:33:39;;;;;;;11.98;9.57;;;;;;;14.57;98.70;101477.31;5035735;28;20068;-80
2023/08/05 02:36:04;;;;;;;11.88;9.25;;;;;;;14.42;98.81;101474.69;5017085;28;20076;-80
2023/08/05 02:38:32;;;;;;;9.88;8.93;;;;;;;14.51;99.29;101482.13;5017262;28;20396;-80
2023/08/05 02:41:00;;;;;;;11.82;8.80;;;;;;;14.44;98.99;101466.53;5017611;28;20132;-80
2023/08/05 02:43:26;;;;;;;10.40;9.18;;;;;;;14.56;98.81;101484.50;5035400;28;20026;-80
2023/08/05 02:45:55;;;;;;;14.27;8.80;;;;;;;14.43;99.44;101479.06;5017668;28;20499;-80
2023/08/05 02:48:24;;;;;;;9.43;8.57;;;;;;;14.40;98.75;101467.72;5035252;28;20041;-80
2023/08/05 02:50:53;;;;;;;10.80;9.30;;;;;;;14.41;99.32;101478.34;5017514;28;20028;-79
2023/08/05 02:53:19;;;;;;;10.75;9.50;;;;;;;14.47;99.53;101474.34;5034935;28;20029;-80
2023/08/05 02:55:48;;;;;;;13.35;9.82;;;;;;;14.40;99.49;101473.09;5035555;28;20120;-80
2023/08/05 02:58:15;;;;;;;10.38;9.02;;;;;;;14.49;99.58;101475.13;5035300;28;20033;-80
2023/08/05 03:00:40;;;;;;;11.82;9.23;;;;;;;14.45;99.33;101466.44;5035239;28;20052;-80
2023/08/05 03:03:10;;;;;;;9.82;9.00;;;;;;;14.50;98.90;101475.03;5017711;28;20473;-80
2023/08/05 03:05:36;;;;;;;11.73;9.23;;;;;;;14.38;98.34;101457.13;5018520;28;20029;-80
2023/08/05 03:08:02;;;;;;;10.93;9.90;;;;;;;14.28;99.28;101456.91;5018058;28;20044;-80
2023/08/05 03:10:27;;;;;;;14.32;9.98;;;;;;;14.40;99.90;101463.22;5035535;28;20025;-80
2023/08/05 03:12:53;;;;;;;11.85;10.60;;;;;;;14.27;99.72;101443.66;5018229;28;20036;-80
2023/08/05 03:15:18;;;;;;;12.55;9.45;;;;;;;14.29;100.00;101442.59;5035502;28;20025;-80
2023/08/05 03:17:43;;;;;;;13.57;10.32;;;;;;;14.25;100.00;101442.88;5017409;28;20106;-80
2023/08/05 03:20:38;;;;;;;10.95;9.55;;;;;;;14.42;99.79;101449.75;5016824;28;20483;-80
2023/08/05 03:23:04;;;;;;;11.02;9.93;;;;;;;14.24;100.00;101435.84;5025946;28;20041;-80
2023/08/05 03:25:30;;;;;;;11.82;10.57;;;;;;;14.26;100.00;101429.38;5034114;28;20465;-80
2023/08/05 03:27:56;;;;;;;11.63;10.35;;;;;;;14.32;99.87;101441.50;5017000;28;20476;-80
2023/08/05 03:30:21;;;;;;;13.05;10.02;;;;;;;14.20;100.00;101437.84;5016394;28;20087;-80
2023/08/05 03:32:49;;;;;;;11.70;10.63;;;;;;;14.19;100.00;101437.97;5016849;28;20033;-80
2023/08/05 03:35:15;;;;;;;12.27;11.02;;;;;;;14.19;100.00;101435.28;5034216;28;20527;-80
2023/08/05 03:37:41;;;;;;;11.63;10.48;;;;;;;14.20;100.00;101437.00;5034473;28;20088;-80
2023/08/05 03:40:09;;;;;;;12.95;10.48;;;;;;;14.12;100.00;101432.19;5016085;28;20045;-80
2023/08/05 03:42:35;;;;;;;14.43;10.80;;;;;;;14.02;99.97;101418.56;5033452;28;20080;-80
2023/08/05 03:45:04;;;;;;;14.07;11.25;;;;;;;13.98;100.00;101409.06;5034127;28;20025;-80
2023/08/05 03:47:33;;;;;;;11.43;10.33;;;;;;;14.12;100.00;101416.13;5016446;28;20026;-80
2023/08/05 03:49:59;;;;;;;12.82;10.45;;;;;;;14.10;99.88;101407.34;5033704;28;20087;-80
2023/08/05 03:52:26;;;;;;;12.68;10.75;;;;;;;14.15;100.00;101412.38;5016490;28;20026;-80
2023/08/05 03:54:52;;;;;;;12.60;11.30;;;;;;;14.01;100.00;101402.63;5015780;28;20033;-80
2023/08/05 03:57:18;;;;;;;14.35;12.20;;;;;;;13.93;100.00;101397.81;5016276;28;20024;-80
2023/08/05 03:59:48;;;;;;;13.85;12.02;;;;;;;13.88;100.00;101389.22;5033721;28;20025;-79
2023/08/05 04:02:14;;;;;;;14.32;12.23;;;;;;;14.07;100.00;101403.06;5016097;28;20118;-80
2023/08/05 04:04:39;;;;;;;13.40;12.13;;;;;;;14.00;100.00;101393.75;5015121;28;20048;-80
2023/08/05 04:07:07;;;;;;;13.60;12.10;;;;;;;14.01;100.00;101399.97;5016045;28;20061;-80
2023/08/05 04:09:35;;;;;;;13.35;12.00;;;;;;;13.96;100.00;101389.56;5015375;28;20049;-80
2023/08/05 04:12:05;;;;;;;15.20;12.18;;;;;;;13.82;100.00;101377.16;5016092;28;20033;-80
2023/08/05 04:14:33;;;;;;;13.02;11.73;;;;;;;13.93;100.00;101388.94;5015699;28;20030;-80
2023/08/05 04:17:02;;;;;;;14.93;13.27;;;;;;;13.84;100.00;101399.28;5033521;28;20017;-80
2023/08/05 04:19:28;;;;;;;13.70;12.32;;;;;;;13.83;100.00;101391.38;5033161;28;20381;-80
2023/08/05 04:21:57;;;;;;;15.45;12.88;;;;;;;13.85;100.00;101394.78;5033533;28;20025;-80
2023/08/05 04:24:24;;;;;;;;;;;;;;;14.15;100.00;101385.63;5015666;28;20025;-80
2023/08/05 04:26:53;;;;;;;9.13;6.72;;;;;;;14.08;100.00;101361.97;5033353;28;19920;-80
2023/08/05 04:29:22;;;;;;;14.20;12.80;;;;;;;14.05;100.00;101366.69;5015389;28;20032;-80
2023/08/05 04:31:51;;;;;;;16.30;13.10;;;;;;;14.04;100.00;101359.63;5033471;28;20365;-80
2023/08/05 04:34:16;;;;;;;14.15;12.77;;;;;;;14.01;100.00;101357.16;5015085;28;20030;-80
2023/08/05 04:36:50;;;;;;;13.90;12.50;;;;;;;14.02;100.00;101361.53;5015523;28;20075;-80
2023/08/05 04:39:21;;;;;;;14.50;13.02;;;;;;;13.96;100.00;101365.50;5032546;28;20025;-80
2023/08/05 04:41:49;;;;;;;19.77;12.25;;;;;;;14.02;100.00;101361.53;5015227;28;20047;-80
2023/08/05 04:44:15;;;;;;;15.65;12.70;;;;;;;14.02;100.00;101353.53;5015170;28;20032;-80
2023/08/05 04:46:40;;;;;;;14.90;12.77;;;;;;;13.85;100.00;101318.13;5014928;28;20033;-80
2023/08/05 04:49:08;;;;;;;13.43;12.18;;;;;;;14.01;100.00;101341.97;5032830;28;20036;-80
2023/08/05 04:51:36;;;;;;;15.68;12.65;;;;;;;13.92;100.00;101350.63;5032784;28;20025;-80
2023/08/05 04:54:02;;;;;;;13.75;12.07;;;;;;;13.77;100.00;101314.28;5032130;28;20057;-80
2023/08/05 04:56:33;;;;;;;14.88;13.23;;;;;;;13.94;100.00;101347.84;5015151;28;20067;-80
2023/08/05 04:58:58;;;;;;;14.43;12.93;;;;;;;13.79;100.00;101318.53;5032731;28;20030;-80
2023/08/05 05:01:26;;;;;;;13.85;12.45;;;;;;;14.02;100.00;101341.00;5015004;28;20021;-80
2023/08/05 05:03:52;;;;;;;13.55;12.27;;;;;;;13.97;100.00;101339.59;5032503;28;20029;-80
2023/08/05 05:06:17;;;;;;;26.38;13.50;;;;;;;13.89;100.00;101337.47;5014819;28;20029;-81
2023/08/05 05:08:46;;;;;;;14.32;12.85;;;;;;;13.88;100.00;101333.06;5032194;28;20431;-80
2023/08/05 05:11:13;;;;;;;21.08;12.82;;;;;;;13.95;100.00;101339.72;5014818;28;20033;-80
2023/08/05 05:13:39;;;;;;;9.32;6.50;;;;;;;14.16;100.00;101348.06;5032513;28;20420;-80
2023/08/05 05:16:04;;;;;;;13.75;12.55;;;;;;;14.03;100.00;101340.06;5014701;28;20032;-80
2023/08/05 05:18:32;;;;;;;15.98;12.90;;;;;;;14.07;100.00;101340.69;5014552;28;20030;-80
2023/08/05 05:20:57;;;;;;;16.52;12.65;;;;;;;13.96;100.00;101328.06;5032283;28;20083;-80
2023/08/05 05:23:25;;;;;;;15.00;13.10;;;;;;;14.03;100.00;101334.72;5014049;28;20029;-80
2023/08/05 05:25:50;;;;;;;14.18;12.52;;;;;;;14.10;100.00;101332.44;5014815;28;20029;-80
2023/08/05 05:28:18;;;;;;;17.00;14.25;;;;;;;13.96;100.00;101333.41;5014640;28;20112;-80
2023/08/05 05:30:43;;;;;;;14.98;12.98;;;;;;;13.96;100.00;101328.06;5014300;28;20419;-80
2023/08/05 05:33:09;;;;;;;18.13;13.32;;;;;;;14.04;100.00;101330.22;5032441;28;20105;-80
2023/08/05 05:35:37;;;;;;;14.68;13.07;;;;;;;14.19;100.00;101333.63;5014404;28;20029;-80
2023/08/05 05:38:02;;;;;;;15.77;13.10;;;;;;;14.05;100.00;101318.53;5014544;28;20017;-80
2023/08/05 05:40:27;;;;;;;19.27;12.98;;;;;;;14.12;100.00;101325.19;5031519;28;20499;-80
2023/08/05 05:42:55;;;;;;;14.82;13.30;;;;;;;14.26;100.00;101325.03;5014523;28;20026;-80
2023/08/05 05:45:21;;;;;;;14.25;12.80;;;;;;;14.36;100.00;101332.44;5014064;28;20025;-80
2023/08/05 05:47:49;;;;;;;15.93;13.52;;;;;;;14.38;100.00;101320.63;5014134;28;20423;-80
2023/08/05 05:50:18;;;;;;;17.00;13.02;;;;;;;14.45;100.00;101315.72;5031949;28;20461;-80
2023/08/05 05:52:43;;;;;;;17.90;13.13;;;;;;;14.53;100.00;101326.78;5014229;28;20044;-79
2023/08/05 05:55:09;;;;;;;14.23;12.30;;;;;;;14.49;100.00;101318.03;5014023;28;20124;-80
2023/08/05 05:57:34;;;;;;;15.98;14.32;;;;;;;14.66;100.00;101314.19;5031914;28;20018;-80
2023/08/05 06:00:04;;;;;;;14.18;12.40;;;;;;;14.72;100.00;101327.13;5013985;28;20079;-80
2023/08/05 06:02:30;;;;;;;17.20;13.35;;;;;;;14.66;100.00;101305.31;5031827;28;20502;-80
2023/08/05 06:04:55;;;;;;;16.65;11.70;;;;;;;14.76;100.00;101312.56;5015966;28;20033;-80
2023/08/05 06:07:21;;;;;;;13.63;12.05;;;;;;;14.81;100.00;101306.00;5035963;28;20026;-80
2023/08/05 06:09:49;;;;;;;14.15;11.45;;;;;;;14.90;100.00;101311.53;5017603;28;20029;-80
2023/08/05 06:12:17;;;;;;;12.15;11.05;;;;;;;14.84;100.00;101297.75;5018104;28;20018;-80
2023/08/05 06:14:43;;;;;;;15.48;11.07;;;;;;;14.90;100.00;101314.22;5035550;28;20022;-80
2023/08/05 06:17:09;;;;;;;12.27;11.13;;;;;;;14.89;100.00;101303.63;5018192;28;20041;-79
2023/08/05 06:19:35;;;;;;;12.45;11.07;;;;;;;14.89;100.00;101298.28;5018126;28;20021;-79
2023/08/05 06:22:00;;;;;;;14.40;11.20;;;;;;;14.90;100.00;101298.13;5017883;28;20017;-79
2023/08/05 06:24:26;;;;;;;12.57;10.52;;;;;;;14.97;100.00;101298.53;5017326;28;20067;-80
2023/08/05 06:26:53;;;;;;;12.80;11.02;;;;;;;15.04;100.00;101290.91;5035573;28;20021;-80
2023/08/05 06:29:19;;;;;;;12.40;10.77;;;;;;;15.08;100.00;101284.34;5035407;28;20049;-80
2023/08/05 06:31:46;;;;;;;11.98;9.43;;;;;;;15.15;100.00;101299.84;5017616;28;20076;-79
2023/08/05 06:34:12;;;;;;;12.27;9.93;;;;;;;15.10;100.00;101288.63;5035383;28;20116;-80
2023/08/05 06:36:40;;;;;;;14.27;9.68;;;;;;;15.24;100.00;101303.66;5035598;28;20092;-80
2023/08/05 06:39:08;;;;;;;12.07;10.15;;;;;;;15.20;100.00;101304.84;5017522;28;20025;-79
2023/08/05 06:41:33;;;;;;;10.55;9.27;;;;;;;15.33;100.00;101307.47;5017351;28;20041;-79
2023/08/05 06:43:59;;;;;;;11.52;10.30;;;;;;;15.30;100.00;101292.47;5017190;28;20024;-80
2023/08/05 06:46:24;;;;;;;13.90;10.27;;;;;;;15.35;100.00;101290.31;5017456;28;20030;-80
2023/08/05 06:48:52;;;;;;;11.52;10.13;;;;;;;15.33;100.00;101284.22;5017219;28;20074;-80
2023/08/05 06:51:17;;;;;;;12.60;10.43;;;;;;;15.38;100.00;101295.44;5035373;28;20489;-80
2023/08/05 06:53:44;;;;;;;14.52;10.68;;;;;;;15.47;100.00;101296.56;5016879;28;20113;-80
2023/08/05 06:56:13;;;;;;;13.50;11.07;;;;;;;15.54;99.31;101294.25;5017520;28;20366;-79
2023/08/05 06:58:38;;;;;;;12.32;11.13;;;;;;;15.56;99.41;101276.22;5035016;28;20076;-79
2023/08/05 07:01:06;;;;;;;11.73;10.52;;;;;;;15.72;98.97;101289.34;5035032;28;20029;-80
2023/08/05 07:03:31;;;;;;;12.38;10.82;;;;;;;15.75;97.56;101287.25;5017290;28;20239;-80
2023/08/05 07:05:59;;;;;;;11.15;10.05;;;;;;;15.79;97.63;101269.94;5035216;28;20373;-80
2023/08/05 07:08:25;;;;;;;12.60;9.57;;;;;;;15.90;97.02;101267.28;5016843;28;20049;-80
2023/08/05 07:10:58;;;;;;;10.88;9.75;;;;;;;15.95;96.30;101276.81;5017312;28;20108;-79
2023/08/05 07:13:27;;;;;;;9.90;8.93;;;;;;;16.08;96.34;101282.91;5018430;28;20035;-80
2023/08/05 07:16:00;;;;;;;11.23;8.63;;;;;;;16.18;96.22;101275.84;5035798;28;20428;-80
2023/08/05 07:18:28;;;;;;;10.35;9.30;;;;;;;16.15;94.21;101276.09;5035627;28;20040;-80
2023/08/05 07:20:53;;;;;;;10.37;8.33;;;;;;;16.25;95.14;101278.88;5035343;28;20071;-80
2023/08/05 07:23:19;;;;;;;8.50;7.70;;;;;;;16.30;94.66;101268.63;5035058;28;20025;-80
2023/08/05 07:25:45;;;;;;;10.48;8.25;;;;;;;16.39;94.82;101267.03;5017082;28;20033;-80
2023/08/05 07:28:10;;;;;;;8.45;7.57;;;;;;;16.31;93.15;101265.81;5016656;28;20022;-80
2023/08/05 07:30:35;;;;;;;7.95;7.18;;;;;;;16.43;93.12;101281.91;5016780;28;20025;-80
2023/08/05 07:33:04;;;;;;;10.45;7.68;;;;;;;16.48;93.06;101274.34;5034295;28;20041;-80
2023/08/05 07:35:30;;;;;;;11.48;7.65;;;;;;;16.51;92.19;101268.72;5016582;28;20089;-80
2023/08/05 07:37:56;;;;;;;9.43;8.30;;;;;;;16.49;91.50;101265.31;5016611;28;20048;-80
2023/08/05 07:40:25;;;;;;;9.30;8.27;;;;;;;16.57;90.87;101278.97;5015769;28;20095;-80
2023/08/05 07:42:53;;;;;;;10.52;7.90;;;;;;;16.56;92.38;101253.09;5034177;28;20033;-80
2023/08/05 07:45:21;;;;;;;9.20;7.30;;;;;;;16.53;92.00;101259.56;5034103;28;20030;-80
2023/08/05 07:47:51;;;;;;;11.88;7.45;;;;;;;16.71;93.03;101261.72;5016248;28;20072;-79
2023/08/05 07:50:22;;;;;;;9.07;7.63;;;;;;;16.57;91.76;101231.47;5016307;28;20023;-80
2023/08/05 07:52:53;;;;;;;9.13;8.05;;;;;;;16.87;90.98;101254.13;5016051;28;20428;-79
2023/08/05 07:55:19;;;;;;;7.97;7.03;;;;;;;16.84;89.78;101235.56;5033538;28;20022;-81
2023/08/05 07:57:46;;;;;;;8.32;6.78;;;;;;;17.05;88.91;101234.75;5016253;28;20116;-80
2023/08/05 08:00:13;;;;;;;7.65;6.65;;;;;;;17.20;88.69;101245.06;5016082;28;20032;-80
2023/08/05 08:02:42;;;;;;;7.47;6.35;;;;;;;17.54;87.92;101230.56;5016161;28;20477;-80
2023/08/05 08:05:13;;;;;;;6.82;6.13;;;;;;;17.61;85.44;101200.31;5016124;28;20055;-80
2023/08/05 08:07:46;;;;;;;7.03;6.20;;;;;;;17.82;82.76;101226.34;5033910;28;20492;-80
2023/08/05 08:10:13;;;;;;;7.90;5.70;;;;;;;17.92;83.37;101222.72;5015346;28;20021;-79
2023/08/05 08:12:38;;;;;;;6.53;5.45;;;;;;;17.87;82.92;101224.13;5033807;28;20029;-80
2023/08/05 08:15:04;;;;;;;7.30;5.13;;;;;;;17.89;83.30;101214.94;5015848;28;20026;-80
2023/08/05 08:17:32;;;;;;;5.43;4.25;;;;;;;17.92;84.00;101214.66;5033642;28;20045;-80
2023/08/05 08:19:58;;;;;;;5.75;4.03;;;;;;;17.75;83.90;101182.13;5033338;28;20025;-80
2023/08/05 08:22:26;;;;;;;6.93;4.30;;;;;;;17.89;82.87;101217.63;5015733;28;20395;-80
2023/08/05 08:24:52;;;;;;;6.82;3.72;;;;;;;17.93;83.54;101210.13;5015121;28;20083;-81
2023/08/05 08:27:17;;;;;;;4.72;3.92;;;;;;;17.74;81.64;101199.25;5032740;28;20029;-80
2023/08/05 08:29:43;;;;;;;8.80;4.80;;;;;;;17.65;81.66;101201.75;5033201;28;20028;-80
2023/08/05 08:32:08;;;;;;;4.47;3.75;;;;;;;17.67;82.03;101215.06;5033444;28;20029;-80
2023/08/05 08:34:34;;;;;;;6.88;3.88;;;;;;;17.67;82.97;101196.22;5015217;28;20112;-80
2023/08/05 08:37:00;;;;;;;7.03;4.10;;;;;;;17.87;83.35;101181.91;5015594;28;20025;-80
2023/08/05 08:39:26;;;;;;;5.25;3.90;;;;;;;18.10;82.91;101173.63;5014731;28;20477;-80
2023/08/05 08:41:54;;;;;;;4.75;3.50;;;;;;;18.23;81.88;101168.81;5032935;28;20088;-80
2023/08/05 08:44:20;;;;;;;4.15;3.63;;;;;;;18.32;78.13;101177.91;5015379;28;20055;-80
2023/08/05 08:46:51;;;;;;;6.50;3.65;;;;;;;18.66;77.65;101170.31;5015279;28;20033;-80
2023/08/05 08:49:19;;;;;;;4.53;3.88;;;;;;;18.73;77.27;101167.88;5015077;28;20044;-80
2023/08/05 08:51:48;;;;;;;4.22;3.20;;;;;;;19.06;77.77;101163.94;5032915;28;20036;-80
2023/08/05 08:54:17;;;;;;;5.78;3.30;;;;;;;19.11;77.10;101160.81;5032496;28;20358;-80
2023/08/05 08:56:43;;;;;;;4.28;3.40;;;;;;;19.02;77.91;101159.81;5015134;28;20053;-80
2023/08/05 08:59:08;;;;;;;6.63;3.47;;;;;;;18.93;74.84;101152.59;5015060;28;20059;-80
2023/08/05 09:01:41;;;;;;;4.63;3.60;;;;;;;18.90;75.21;101160.97;5015100;28;20033;-80
2023/08/05 09:04:08;;;;;;;3.90;3.20;;;;;;;19.00;76.86;101153.72;5015394;28;20087;-80
2023/08/05 09:06:34;;;;;;;4.85;3.20;;;;;;;18.97;76.39;101148.63;5032629;28;20025;-80
2023/08/05 09:09:00;;;;;;;4.47;3.15;;;;;;;18.98;76.71;101143.09;5014229;28;20025;-80
2023/08/05 09:11:25;;;;;;;6.32;3.60;;;;;;;19.05;77.67;101136.13;5032718;28;20374;-80
2023/08/05 09:13:52;;;;;;;6.22;3.30;;;;;;;18.93;76.54;101139.13;5014573;28;20076;-80
2023/08/05 09:16:18;;;;;;;4.45;3.55;;;;;;;18.73;75.22;101132.84;5014845;28;20052;-80
2023/08/05 09:18:53;;;;;;;7.03;3.90;;;;;;;18.52;75.27;101135.69;5032452;28;20029;-80
2023/08/05 09:21:25;;;;;;;4.38;3.67;;;;;;;18.59;76.43;101118.00;5032638;28;20037;-80
2023/08/05 09:23:53;;;;;;;5.20;3.97;;;;;;;18.47;76.96;101113.72;5031625;28;20025;-80
2023/08/05 09:26:27;;;;;;;4.57;4.00;;;;;;;18.56;78.24;101120.94;5014711;28;20447;-80
2023/08/05 09:28:56;;;;;;;7.30;3.80;;;;;;;18.67;79.13;101115.41;5014566;28;20565;-80
2023/08/05 09:31:22;;;;;;;6.55;4.28;;;;;;;18.62;78.60;101112.31;5014675;28;20025;-80
2023/08/05 09:33:48;;;;;;;7.45;4.65;;;;;;;18.52;78.18;101106.06;5014329;28;20119;-80
2023/08/05 09:36:24;;;;;;;6.68;4.60;;;;;;;18.61;77.28;101102.53;5014611;28;20048;-80
2023/08/05 09:39:06;;;;;;;5.20;4.63;;;;;;;18.54;77.84;101096.84;5013346;28;20133;-80
2023/08/05 09:41:35;;;;;;;6.72;4.38;;;;;;;18.45;77.83;101100.41;5010824;28;20061;-80
2023/08/05 09:44:01;;;;;;;8.32;4.55;;;;;;;18.48;77.89;101102.81;5012285;28;20046;-80
2023/08/05 09:46:39;;;;;;;6.68;4.65;;;;;;;18.50;77.94;101103.53;5027681;28;20022;-80
2023/08/05 09:49:06;;;;;;;9.65;4.60;;;;;;;18.39;77.85;101090.22;5012349;28;20037;-80
2023/08/05 09:51:32;;;;;;;7.93;4.63;;;;;;;18.39;78.26;101082.97;5010797;28;20092;-80
2023/08/05 09:54:02;;;;;;;6.40;4.07;;;;;;;18.38;78.00;101083.97;5026970;28;20485;-80
2023/08/05 09:56:30;;;;;;;7.82;4.65;;;;;;;18.27;78.43;101081.41;5027716;28;20058;-80
2023/08/05 09:58:56;;;;;;;5.20;3.97;;;;;;;18.15;78.75;101067.22;5027435;28;20037;-80
2023/08/05 10:01:21;;;;;;;6.50;3.97;;;;;;;18.23;78.81;101081.81;5012448;28;20033;-80
2023/08/05 10:03:59;;;;;;;5.70;4.13;;;;;;;18.19;78.87;101073.19;5027181;28;20065;-80
2023/08/05 10:06:24;;;;;;;5.57;4.03;;;;;;;18.20;78.35;101071.34;5027245;28;20469;-80
2023/08/05 10:08:55;;;;;;;5.85;4.18;;;;;;;18.17;79.08;101054.47;5010510;28;20018;-80
2023/08/05 10:11:21;;;;;;;4.85;3.70;;;;;;;18.27;80.72;101061.72;5012356;28;20058;-80
2023/08/05 10:13:52;;;;;;;7.47;4.07;;;;;;;18.16;79.58;101060.84;5011929;28;20029;-80
2023/08/05 10:16:21;;;;;;;4.97;4.05;;;;;;;17.95;81.11;101041.28;5012321;28;20137;-80
2023/08/05 10:18:48;;;;;;;7.70;4.85;;;;;;;18.00;84.28;101049.81;5012092;28;20057;-81
2023/08/05 10:21:37;;;;;;;7.05;5.60;;;;;;;18.17;84.77;101067.06;5027241;28;20194;-81
2023/08/05 10:24:03;;;;;;;6.70;5.55;;;;;;;17.98;85.10;101059.00;5010600;28;20107;-81
2023/08/05 10:27:08;;;;;;;8.02;6.38;;;;;;;18.07;86.06;101053.63;5012144;28;20065;-81
2023/08/05 10:29:34;;;;;;;5.93;5.25;;;;;;;17.90;84.57;101048.94;5005292;28;20402;-81
2023/08/05 10:32:09;;;;;;;9.65;5.70;;;;;;;17.96;83.83;101058.28;5012137;28;20144;-81
2023/08/05 10:34:34;;;;;;;8.05;6.55;;;;;;;17.87;87.63;101041.97;5026948;28;20038;-80
2023/08/05 10:37:01;;;;;;;7.43;6.00;;;;;;;17.91;83.98;101037.16;5012178;28;20386;-81
2023/08/05 10:39:39;;;;;;;8.35;6.40;;;;;;;18.05;86.49;101033.22;5010318;28;20021;-81
2023/08/05 10:42:32;;;;;;;7.40;5.55;;;;;;;18.20;84.15;101041.72;5027206;28;20046;-81
2023/08/05 10:45:04;;;;;;;6.63;5.55;;;;;;;18.22;83.56;101035.22;5010540;28;20083;-81
2023/08/05 10:47:32;;;;;;;11.80;5.43;;;;;;;18.28;82.79;101031.09;5011592;28;20033;-80
2023/08/05 10:49:59;;;;;;;5.82;5.32;;;;;;;18.30;80.24;101029.13;5011681;28;20022;-81
2023/08/05 10:52:25;;;;;;;6.20;4.97;;;;;;;18.34;80.16;101027.84;5016132;28;20393;-80
2023/08/05 10:54:51;;;;;;;4.70;4.30;;;;;;;18.25;76.80;101028.69;5030202;28;20025;-80
2023/08/05 10:57:54;;;;;;;5.60;4.60;;;;;;;18.37;79.31;101041.00;5015546;28;20022;-80
2023/08/05 11:00:21;;;;;;;6.97;4.53;;;;;;;18.24;78.39;101024.31;4993752;28;20038;-80
2023/08/05 11:03:24;;;;;;;6.57;4.47;;;;;;;18.42;78.65;101027.13;5030677;28;20029;-80
2023/08/05 11:05:49;;;;;;;8.43;4.47;;;;;;;18.24;77.48;101014.38;5030895;28;20057;-79
2023/08/05 11:08:25;;;;;;;6.30;4.55;;;;;;;18.44;77.87;101028.66;5015887;28;20080;-77
2023/08/05 11:10:59;;;;;;;6.10;4.40;;;;;;;18.28;78.65;101004.16;5014806;28;20069;-79
2023/08/05 11:13:30;;;;;;;5.18;4.28;;;;;;;18.37;76.11;101019.47;5051365;28;20081;-80
2023/08/05 11:16:03;;;;;;;5.07;4.20;;;;;;;18.31;76.98;101023.56;5039475;28;20157;-80
2023/08/05 11:18:30;;;;;;;6.80;3.80;;;;;;;18.27;78.56;101019.47;5039816;28;20029;-80
2023/08/05 11:20:57;;;;;;;5.65;3.88;;;;;;;18.17;76.36;101008.69;5055945;28;20014;-80